FLIGHT DETAILS
Pilot: ACV287 Karlo Siljevinac Aircraft: PMDG - 747-400F GE CF6 ENGINES Distance: 4766NM
Departure RKSI Arrival LDZA Duration 8.77
Validation Validated Type Charter Tail Number N744PM
ZFW 245025 Block Fuel/Initial FOB -43,237/0 Flight Fuel -50,372
Passengers 0 Cargo 85000 Alternate LDDU
Departure Time 2230 Cruise Speed 480 Flight Level 36000
Flight Type IFR Aircraft Type Weight Unit Kg
Date 2017-02-22 Pilot Comments Network IVAO
Crashed No Validator Comments Flight Rating 100

 ROUTE
ROUTE
REMARKS
 FLIGHT FAILURES
Crashed OK Beacon off & Engine Running Fail KIAS Above 250 below 10000 FT Fail
Lights OFF below 10000 FT Fail Lights ON above 10000 FT Fail Stall Fail
Overspeed Fail Flight paused OK Refueling Fail
Slew detected Fail Taxi & Taxi lights off OK Take off & lights off OK
Landing & lights off Fail Landed in not planned airport OK Taxi Speed Fail
Wrong altimeter in Take off OK Wrong altimeter in Landing OK
 LANDING ANALYSIS
Landing wind 0º/0 kt Landing heading 127
Landing VS: -334.49 ft/min Landing IAS: 135.48 kt
Landing Force G 1 G Landing Bank -2.3
Landing Pitch 6.3 Landing Flaps 33
Navigation Lights OFF Landing Lights ON
Beacon Lights OFF Strobe Lights OFF
 FLIGHT MAP
 ALTITUDE CHART
 FLIGHT FINANCIAL REPORT
 MAIN EVENTS
DATE EVENTIASALTITUDE
2017-02-21 22:22:57 SIM ACARS version 1.4.0035
2017-02-21 22:22:57 BOARDING035
2017-02-21 22:22:58 STARTING ENGINE 1 035
2017-02-21 22:22:58 STARTING ENGINE 2 035
2017-02-21 22:22:58 STARTING ENGINE 3 035
2017-02-21 22:22:58 STARTING ENGINE 4 035
2017-02-21 22:22:58 BEACON LIGHT OFF & ENGINE ON035
2017-02-21 22:28:17 REFUELING 15,91%035
2017-02-21 22:29:18 REFUELING 18,06%035
2017-02-21 22:35:58 REFUELING 46,11%035
2017-02-21 22:37:55 PUSHBACK035
2017-02-21 22:38:00 FLAPS EXTENSION 17 % 035
2017-02-21 22:38:00 FLAPS EXTENSION 33 % 035
2017-02-21 22:38:00 FLAPS EXTENSION 50 % 035
2017-02-21 22:39:48 TAXI TO THE RWY 1035
2017-02-21 22:43:54 ROLLING FOR TAKE OFF4235
2017-02-21 22:44:27 TAKE OFF19836
2017-02-21 22:44:30 GEAR UP20755
2017-02-21 22:44:52 FLAPS EXTENSION 33 % 234883
2017-02-21 22:44:59 FLAPS EXTENSION 17 % 2451100
2017-02-21 22:45:09 IAS ABOVE 250 KNOTS BELOW 10000 ft2611421
2017-02-21 22:45:50 FLAPS EXTENSION 0 % 2784113
2017-02-21 22:47:25 LIGHTS ON ABOVE 10000 ft28910506
2017-02-21 22:58:57 CRUISE31434001
2017-02-21 23:00:37 OVERSPEED34134003
2017-02-21 23:09:01 RECOVER FROM OVERSPEED38534044
2017-02-21 23:09:33 OVERSPEED5034044
2017-02-22 00:37:12 CLIMBING40734207
2017-02-22 00:37:42 CRUISE40634270
2017-02-22 02:36:18 DESCEND40033783
2017-02-22 02:36:58 CRUISE40033694
2017-02-22 03:55:12 DESCEND38533275
2017-02-22 03:55:42 CRUISE38633248
2017-02-22 06:00:29 CLIMBING40533818
2017-02-22 06:01:09 CRUISE40334023
2017-02-22 06:31:14 STOPPING ENGINE 1 41033970
2017-02-22 06:31:14 STOPPING ENGINE 2 41033970
2017-02-22 06:31:14 STOPPING ENGINE 3 41033970
2017-02-22 06:31:14 STOPPING ENGINE 4 41033970
2017-02-22 06:31:14 STARTING ENGINE 1 41033970
2017-02-22 06:31:14 STARTING ENGINE 2 41033970
2017-02-22 06:31:14 STARTING ENGINE 3 41033970
2017-02-22 06:31:15 STARTING ENGINE 4 41033970
2017-02-22 06:31:15 STOPPING ENGINE 1 41033970
2017-02-22 06:31:15 STOPPING ENGINE 2 41033970
2017-02-22 06:31:15 STOPPING ENGINE 3 41033970
2017-02-22 06:31:15 STOPPING ENGINE 4 41033970
2017-02-22 06:31:15 STARTING ENGINE 1 41033971
2017-02-22 06:31:15 STARTING ENGINE 2 41033971
2017-02-22 06:31:15 STARTING ENGINE 3 41033971
2017-02-22 06:31:15 STARTING ENGINE 4 41033971
2017-02-22 06:31:15 STOPPING ENGINE 1 41033971
2017-02-22 06:31:15 STOPPING ENGINE 2 41033971
2017-02-22 06:31:15 STOPPING ENGINE 3 41033971
2017-02-22 06:31:15 STOPPING ENGINE 4 41033971
2017-02-22 06:31:16 STARTING ENGINE 1 41033971
2017-02-22 06:31:16 STARTING ENGINE 2 41033971
2017-02-22 06:31:16 STARTING ENGINE 3 41033971
2017-02-22 06:31:16 STARTING ENGINE 4 41033971
2017-02-22 06:31:16 STOPPING ENGINE 1 40933970
2017-02-22 06:31:16 STOPPING ENGINE 2 40933970
2017-02-22 06:31:16 STOPPING ENGINE 3 40933970
2017-02-22 06:31:16 STOPPING ENGINE 4 40933970
2017-02-22 06:31:16 STARTING ENGINE 1 40933970
2017-02-22 06:31:16 STARTING ENGINE 2 40933970
2017-02-22 06:31:16 STARTING ENGINE 3 40933970
2017-02-22 06:31:16 STARTING ENGINE 4 40933970
2017-02-22 06:31:16 STOPPING ENGINE 1 40933970
2017-02-22 06:31:16 STOPPING ENGINE 2 40933970
2017-02-22 06:31:16 STOPPING ENGINE 3 40933970
2017-02-22 06:31:16 STOPPING ENGINE 4 40933970
2017-02-22 06:31:17 STARTING ENGINE 1 40833970
2017-02-22 06:31:17 STARTING ENGINE 2 40833970
2017-02-22 06:31:17 STARTING ENGINE 3 40833970
2017-02-22 06:31:17 STARTING ENGINE 4 40833970
2017-02-22 06:31:17 STOPPING ENGINE 1 40833970
2017-02-22 06:31:17 STOPPING ENGINE 2 40833970
2017-02-22 06:31:17 STOPPING ENGINE 3 40833970
2017-02-22 06:31:17 STOPPING ENGINE 4 40833970
2017-02-22 06:31:17 STARTING ENGINE 1 40733969
2017-02-22 06:31:17 STARTING ENGINE 2 40733969
2017-02-22 06:31:17 STARTING ENGINE 3 40733969
2017-02-22 06:31:17 STARTING ENGINE 4 40733969
2017-02-22 06:31:17 STOPPING ENGINE 1 40733969
2017-02-22 06:31:17 STOPPING ENGINE 2 40733969
2017-02-22 06:31:18 STOPPING ENGINE 3 40733969
2017-02-22 06:31:18 STOPPING ENGINE 4 40733969
2017-02-22 06:31:18 STARTING ENGINE 1 40633969
2017-02-22 06:31:18 STARTING ENGINE 2 40633969
2017-02-22 06:31:18 STARTING ENGINE 3 40633969
2017-02-22 06:31:18 STARTING ENGINE 4 40633969
2017-02-22 06:31:18 STOPPING ENGINE 1 40533969
2017-02-22 06:31:18 STOPPING ENGINE 2 40533969
2017-02-22 06:31:18 STOPPING ENGINE 3 40533969
2017-02-22 06:31:18 STOPPING ENGINE 4 40533969
2017-02-22 06:31:18 STARTING ENGINE 1 40533969
2017-02-22 06:31:18 STARTING ENGINE 2 40533969
2017-02-22 06:31:19 STARTING ENGINE 3 40533969
2017-02-22 06:31:19 STARTING ENGINE 4 40533969
2017-02-22 06:31:19 STOPPING ENGINE 1 40433969
2017-02-22 06:31:19 STOPPING ENGINE 2 40433969
2017-02-22 06:31:19 STOPPING ENGINE 3 40433969
2017-02-22 06:31:19 STOPPING ENGINE 4 40433969
2017-02-22 06:31:19 STARTING ENGINE 1 40433969
2017-02-22 06:31:19 STARTING ENGINE 2 40433969
2017-02-22 06:31:19 STARTING ENGINE 3 40433969
2017-02-22 06:31:19 STARTING ENGINE 4 40433969
2017-02-22 06:31:19 STOPPING ENGINE 1 40233969
2017-02-22 06:31:19 STOPPING ENGINE 2 40233969
2017-02-22 06:31:19 STOPPING ENGINE 3 40233969
2017-02-22 06:31:19 STOPPING ENGINE 4 40233969
2017-02-22 06:31:43 RECOVER FROM OVERSPEED34333971
2017-02-22 06:33:50 DESCEND20032468
2017-02-22 06:38:52 LIGHTS OFF BELOW 10000 ft3159488
2017-02-22 06:40:41 CRUISE2216029
2017-02-22 06:41:41 DESCEND1714862
2017-02-22 06:42:50 STALL1443180
2017-02-22 06:42:56 RECOVER FROM STALL1492854
2017-02-22 06:43:32 STALL1441918
2017-02-22 06:43:43 LANDING WITH LANDING LIGHTS OFF1601040
2017-02-22 06:43:43 LANDING1601040
2017-02-22 06:43:43 TAKE OFF1611040
2017-02-22 06:43:43 RECOVER FROM STALL1621025
2017-02-22 06:43:51 DESCEND1591021
2017-02-22 07:19:00 GEAR DOWN171406
2017-02-22 07:20:03 CRUISE32431
2017-02-22 07:26:02 STARTING ENGINE 1 7428
2017-02-22 07:26:02 STOPPING ENGINE 1 7428
2017-02-22 07:26:04 STARTING ENGINE 1 7428
2017-02-22 07:26:05 STOPPING ENGINE 1 7428
2017-02-22 07:26:05 STARTING ENGINE 1 7428
2017-02-22 07:26:06 STOPPING ENGINE 1 7428
2017-02-22 07:26:06 STARTING ENGINE 1 7428
2017-02-22 07:26:06 STOPPING ENGINE 1 7428
2017-02-22 07:26:06 STARTING ENGINE 1 7428
2017-02-22 07:26:07 STOPPING ENGINE 1 7428
2017-02-22 07:26:11 STARTING ENGINE 1 7428
2017-02-22 07:26:11 STOPPING ENGINE 1 7428
2017-02-22 07:26:12 STARTING ENGINE 1 7428
2017-02-22 07:26:13 STOPPING ENGINE 1 7428
2017-02-22 07:26:19 STARTING ENGINE 1 8428
2017-02-22 07:26:19 STOPPING ENGINE 1 8428
2017-02-22 07:26:19 STARTING ENGINE 1 7428
2017-02-22 07:26:20 STOPPING ENGINE 1 7428
2017-02-22 07:26:25 STARTING ENGINE 1 7428
2017-02-22 07:26:25 STOPPING ENGINE 1 7428
2017-02-22 07:26:26 STARTING ENGINE 1 7428
2017-02-22 07:26:26 STOPPING ENGINE 1 7428
2017-02-22 07:26:33 STARTING ENGINE 1 7428
2017-02-22 07:26:34 STOPPING ENGINE 1 7428
2017-02-22 07:26:41 STARTING ENGINE 1 10428
2017-02-22 07:26:41 STOPPING ENGINE 1 10428
2017-02-22 07:26:42 STARTING ENGINE 1 10428
2017-02-22 07:26:43 STOPPING ENGINE 1 10428
2017-02-22 07:26:43 STARTING ENGINE 1 10428
2017-02-22 07:26:43 STOPPING ENGINE 1 9428
2017-02-22 07:26:43 STARTING ENGINE 1 8428
2017-02-22 07:26:44 STOPPING ENGINE 1 7428
2017-02-22 07:26:44 STARTING ENGINE 1 7428
2017-02-22 07:26:44 STOPPING ENGINE 1 7428
2017-02-22 07:26:49 STARTING ENGINE 1 10428
2017-02-22 07:26:50 STOPPING ENGINE 1 9428
2017-02-22 07:26:56 STARTING ENGINE 1 6428
2017-02-22 07:26:57 STOPPING ENGINE 1 7428
2017-02-22 07:27:18 STARTING ENGINE 1 7428
2017-02-22 07:27:19 STOPPING ENGINE 1 7428
2017-02-22 07:27:19 STARTING ENGINE 1 7428
2017-02-22 07:27:19 STOPPING ENGINE 1 7428
2017-02-22 07:27:21 STARTING ENGINE 1 7428
2017-02-22 07:27:21 STOPPING ENGINE 1 7428
2017-02-22 07:27:24 STARTING ENGINE 1 8428
2017-02-22 07:27:25 STOPPING ENGINE 1 9428
2017-02-22 07:27:25 STARTING ENGINE 1 9428
2017-02-22 07:27:26 STOPPING ENGINE 1 9428
2017-02-22 07:27:31 STARTING ENGINE 1 6428
2017-02-22 07:27:31 STOPPING ENGINE 1 7428
2017-02-22 07:27:32 SLEW MODE ACTIVATED7428
2017-02-22 07:28:03 CLIMBING028473
2017-02-22 07:28:33 CRUISE030811
2017-02-22 07:29:37 REFUELING 32,61%030811
2017-02-22 07:31:46 STARTING ENGINE 1 030811
2017-02-22 07:33:49 OVERSPEED4730804
2017-02-22 07:33:49 STARTING ENGINE 2 4730804
2017-02-22 07:33:49 STARTING ENGINE 3 4730804
2017-02-22 07:33:49 STARTING ENGINE 4 4730804
2017-02-22 07:34:10 RECOVER FROM OVERSPEED32837066
2017-02-22 07:34:13 CLIMBING28638909
2017-02-22 07:35:03 DESCEND22940807
2017-02-22 07:36:23 CLIMBING27532483
2017-02-22 07:37:13 DESCEND25132354
2017-02-22 07:38:00 GEAR UP26930808
2017-02-22 07:49:35 GEAR DOWN2133528
2017-02-22 07:49:36 FLAPS EXTENSION 17 % 2123506
2017-02-22 07:49:37 FLAPS EXTENSION 33 % 2123460
2017-02-22 07:49:38 FLAPS EXTENSION 50 % 2123439
2017-02-22 07:49:38 FLAPS EXTENSION 67 % 2123422
2017-02-22 07:50:00 FLAPS EXTENSION 100 % 1852948
2017-02-22 07:50:00 FLAPS EXTENSION 100 % 1852946
2017-02-22 07:50:00 FLAPS EXTENSION 83 % 1842940
2017-02-22 07:50:00 FLAPS EXTENSION 100 % 1842933
2017-02-22 07:50:00 FLAPS EXTENSION 83 % 1842927
2017-02-22 07:50:01 FLAPS EXTENSION 83 % 1832921
2017-02-22 07:50:01 FLAPS EXTENSION 100 % 1832915
2017-02-22 07:50:01 FLAPS EXTENSION 83 % 1832912
2017-02-22 07:50:01 FLAPS EXTENSION 83 % 1832908
2017-02-22 07:50:02 FLAPS EXTENSION 100 % 1822901
2017-02-22 07:50:02 FLAPS EXTENSION 83 % 1822898
2017-02-22 07:50:02 FLAPS EXTENSION 100 % 1822895
2017-02-22 07:50:02 FLAPS EXTENSION 83 % 1822891
2017-02-22 07:50:02 FLAPS EXTENSION 100 % 1822888
2017-02-22 07:50:02 FLAPS EXTENSION 83 % 1822884
2017-02-22 07:50:03 FLAPS EXTENSION 83 % 1822877
2017-02-22 07:50:03 FLAPS EXTENSION 100 % 1812873
2017-02-22 07:50:03 FLAPS EXTENSION 83 % 1812867
2017-02-22 07:50:03 FLAPS EXTENSION 83 % 1812864
2017-02-22 07:50:03 FLAPS EXTENSION 100 % 1812859
2017-02-22 07:50:03 FLAPS EXTENSION 83 % 1812852
2017-02-22 07:50:04 FLAPS EXTENSION 100 % 1802849
2017-02-22 07:50:04 FLAPS EXTENSION 100 % 1802845
2017-02-22 07:50:04 FLAPS EXTENSION 100 % 1802842
2017-02-22 07:50:04 FLAPS EXTENSION 100 % 1802839
2017-02-22 07:50:04 FLAPS EXTENSION 83 % 1802835
2017-02-22 07:50:04 FLAPS EXTENSION 83 % 1802831
2017-02-22 07:50:05 FLAPS EXTENSION 100 % 1802823
2017-02-22 07:50:05 FLAPS EXTENSION 83 % 1792819
2017-02-22 07:50:05 FLAPS EXTENSION 83 % 1792812
2017-02-22 07:50:05 FLAPS EXTENSION 100 % 1792808
2017-02-22 07:50:05 FLAPS EXTENSION 100 % 1792798
2017-02-22 07:50:06 FLAPS EXTENSION 83 % 1792793
2017-02-22 07:50:06 FLAPS EXTENSION 100 % 1792789
2017-02-22 07:50:06 FLAPS EXTENSION 83 % 1782781
2017-02-22 07:50:06 FLAPS EXTENSION 83 % 1782776
2017-02-22 07:50:06 FLAPS EXTENSION 83 % 1782766
2017-02-22 07:50:07 FLAPS EXTENSION 100 % 1782762
2017-02-22 07:50:07 FLAPS EXTENSION 100 % 1782758
2017-02-22 07:50:07 FLAPS EXTENSION 100 % 1782754
2017-02-22 07:50:07 FLAPS EXTENSION 100 % 1782750
2017-02-22 07:50:07 FLAPS EXTENSION 100 % 1772744
2017-02-22 07:50:07 FLAPS EXTENSION 83 % 1772739
2017-02-22 07:50:08 FLAPS EXTENSION 83 % 1772734
2017-02-22 07:50:08 FLAPS EXTENSION 100 % 1772717
2017-02-22 07:50:08 FLAPS EXTENSION 83 % 1772706
2017-02-22 07:50:08 FLAPS EXTENSION 83 % 1772698
2017-02-22 07:50:09 FLAPS EXTENSION 100 % 1772694
2017-02-22 07:50:09 FLAPS EXTENSION 100 % 1772687
2017-02-22 07:50:09 FLAPS EXTENSION 83 % 1762678
2017-02-22 07:50:09 FLAPS EXTENSION 83 % 1762671
2017-02-22 07:50:10 FLAPS EXTENSION 83 % 1762661
2017-02-22 07:50:10 FLAPS EXTENSION 100 % 1762653
2017-02-22 07:50:10 FLAPS EXTENSION 100 % 1762646
2017-02-22 07:50:10 FLAPS EXTENSION 83 % 1762641
2017-02-22 07:50:10 FLAPS EXTENSION 100 % 1762635
2017-02-22 07:50:11 FLAPS EXTENSION 83 % 1762614
2017-02-22 07:50:11 FLAPS EXTENSION 100 % 1762606
2017-02-22 07:50:11 FLAPS EXTENSION 83 % 1762603
2017-02-22 07:50:11 FLAPS EXTENSION 100 % 1762598
2017-02-22 07:50:11 FLAPS EXTENSION 83 % 1762591
2017-02-22 07:50:11 FLAPS EXTENSION 83 % 1762584
2017-02-22 07:50:12 FLAPS EXTENSION 100 % 1762572
2017-02-22 07:50:12 FLAPS EXTENSION 100 % 1762569
2017-02-22 07:50:12 FLAPS EXTENSION 100 % 1762565
2017-02-22 07:50:12 FLAPS EXTENSION 83 % 1762554
2017-02-22 07:50:12 FLAPS EXTENSION 100 % 1762549
2017-02-22 07:50:12 FLAPS EXTENSION 100 % 1762545
2017-02-22 07:50:13 FLAPS EXTENSION 100 % 1762533
2017-02-22 07:50:13 FLAPS EXTENSION 83 % 1762521
2017-02-22 07:50:13 FLAPS EXTENSION 100 % 1762513
2017-02-22 07:50:13 FLAPS EXTENSION 83 % 1762506
2017-02-22 07:50:14 FLAPS EXTENSION 100 % 1762498
2017-02-22 07:50:14 FLAPS EXTENSION 83 % 1762491
2017-02-22 07:50:14 FLAPS EXTENSION 100 % 1762487
2017-02-22 07:50:14 FLAPS EXTENSION 100 % 1762479
2017-02-22 07:50:14 FLAPS EXTENSION 83 % 1762474
2017-02-22 07:50:14 FLAPS EXTENSION 100 % 1762464
2017-02-22 07:50:15 FLAPS EXTENSION 83 % 1762452
2017-02-22 07:50:15 FLAPS EXTENSION 100 % 1762444
2017-02-22 07:50:15 FLAPS EXTENSION 100 % 1762438
2017-02-22 07:50:15 FLAPS EXTENSION 83 % 1762432
2017-02-22 07:50:15 FLAPS EXTENSION 83 % 1762425
2017-02-22 07:50:15 FLAPS EXTENSION 100 % 1762417
2017-02-22 07:50:16 FLAPS EXTENSION 100 % 1762403
2017-02-22 07:50:16 FLAPS EXTENSION 83 % 1762396
2017-02-22 07:50:16 FLAPS EXTENSION 100 % 1762389
2017-02-22 07:50:16 FLAPS EXTENSION 83 % 1762384
2017-02-22 07:50:16 FLAPS EXTENSION 100 % 1762375
2017-02-22 07:50:17 FLAPS EXTENSION 83 % 1762365
2017-02-22 07:50:17 FLAPS EXTENSION 100 % 1762340
2017-02-22 07:50:17 FLAPS EXTENSION 83 % 1762332
2017-02-22 07:50:18 FLAPS EXTENSION 100 % 1762323
2017-02-22 07:50:18 FLAPS EXTENSION 83 % 1762307
2017-02-22 07:50:18 FLAPS EXTENSION 100 % 1762288
2017-02-22 07:50:19 FLAPS EXTENSION 83 % 1762280
2017-02-22 07:50:19 FLAPS EXTENSION 100 % 1762276
2017-02-22 07:50:19 FLAPS EXTENSION 83 % 1762270
2017-02-22 07:50:19 FLAPS EXTENSION 100 % 1762265
2017-02-22 07:50:19 FLAPS EXTENSION 100 % 1762253
2017-02-22 07:50:20 FLAPS EXTENSION 83 % 1762236
2017-02-22 07:50:20 FLAPS EXTENSION 100 % 1762232
2017-02-22 07:50:20 FLAPS EXTENSION 83 % 1762228
2017-02-22 07:50:20 FLAPS EXTENSION 83 % 1762220
2017-02-22 07:50:20 FLAPS EXTENSION 100 % 1762216
2017-02-22 07:50:20 FLAPS EXTENSION 83 % 1762209
2017-02-22 07:50:21 FLAPS EXTENSION 100 % 1762196
2017-02-22 07:50:21 FLAPS EXTENSION 83 % 1762189
2017-02-22 07:50:21 FLAPS EXTENSION 83 % 1762173
2017-02-22 07:50:21 FLAPS EXTENSION 100 % 1762166
2017-02-22 07:50:22 FLAPS EXTENSION 83 % 1762155
2017-02-22 07:50:22 FLAPS EXTENSION 100 % 1762147
2017-02-22 07:50:22 FLAPS EXTENSION 100 % 1762135
2017-02-22 07:50:22 FLAPS EXTENSION 83 % 1762127
2017-02-22 07:50:22 FLAPS EXTENSION 100 % 1762124
2017-02-22 07:50:23 FLAPS EXTENSION 83 % 1762109
2017-02-22 07:50:23 FLAPS EXTENSION 100 % 1762102
2017-02-22 07:50:23 FLAPS EXTENSION 100 % 1762095
2017-02-22 07:50:23 FLAPS EXTENSION 100 % 1762087
2017-02-22 07:50:23 FLAPS EXTENSION 83 % 1762083
2017-02-22 07:50:23 FLAPS EXTENSION 83 % 1762075
2017-02-22 07:50:23 FLAPS EXTENSION 100 % 1762068
2017-02-22 07:50:24 FLAPS EXTENSION 83 % 1762060
2017-02-22 07:50:24 FLAPS EXTENSION 100 % 1762053
2017-02-22 07:50:24 FLAPS EXTENSION 100 % 1762045
2017-02-22 07:50:24 FLAPS EXTENSION 100 % 1762037
2017-02-22 07:50:24 FLAPS EXTENSION 83 % 1762033
2017-02-22 07:50:25 FLAPS EXTENSION 100 % 1762021
2017-02-22 07:50:25 FLAPS EXTENSION 83 % 1762013
2017-02-22 07:50:25 FLAPS EXTENSION 100 % 1762006
2017-02-22 07:50:25 FLAPS EXTENSION 83 % 1761998
2017-02-22 07:50:25 FLAPS EXTENSION 100 % 1761990
2017-02-22 07:50:26 FLAPS EXTENSION 100 % 1761971
2017-02-22 07:50:26 FLAPS EXTENSION 83 % 1761964
2017-02-22 07:50:26 FLAPS EXTENSION 83 % 1761956
2017-02-22 07:50:26 FLAPS EXTENSION 83 % 1761952
2017-02-22 07:50:26 FLAPS EXTENSION 83 % 1761944
2017-02-22 07:50:27 FLAPS EXTENSION 100 % 1761932
2017-02-22 07:50:27 FLAPS EXTENSION 100 % 1761925
2017-02-22 07:50:27 FLAPS EXTENSION 100 % 1761917
2017-02-22 07:50:27 FLAPS EXTENSION 100 % 1761910
2017-02-22 07:50:27 FLAPS EXTENSION 83 % 1761902
2017-02-22 07:50:28 FLAPS EXTENSION 100 % 1761888
2017-02-22 07:50:28 FLAPS EXTENSION 100 % 1761881
2017-02-22 07:50:28 FLAPS EXTENSION 83 % 1761865
2017-02-22 07:50:28 FLAPS EXTENSION 100 % 1761862
2017-02-22 07:50:29 FLAPS EXTENSION 83 % 1761847
2017-02-22 07:50:29 FLAPS EXTENSION 100 % 1761839
2017-02-22 07:50:29 FLAPS EXTENSION 100 % 1751824
2017-02-22 07:50:29 FLAPS EXTENSION 83 % 1751817
2017-02-22 07:50:29 FLAPS EXTENSION 83 % 1751815
2017-02-22 07:50:29 FLAPS EXTENSION 100 % 1751806
2017-02-22 07:50:30 FLAPS EXTENSION 83 % 1751803
2017-02-22 07:50:30 FLAPS EXTENSION 100 % 1741793
2017-02-22 07:50:30 FLAPS EXTENSION 100 % 1741787
2017-02-22 07:50:30 FLAPS EXTENSION 100 % 1741784
2017-02-22 07:50:30 FLAPS EXTENSION 83 % 1741777
2017-02-22 07:50:31 FLAPS EXTENSION 83 % 1741768
2017-02-22 07:50:31 FLAPS EXTENSION 100 % 1731761
2017-02-22 07:50:31 FLAPS EXTENSION 83 % 1731749
2017-02-22 07:50:31 FLAPS EXTENSION 83 % 1731742
2017-02-22 07:50:31 FLAPS EXTENSION 100 % 1731740
2017-02-22 07:50:31 FLAPS EXTENSION 83 % 1721734
2017-02-22 07:50:32 FLAPS EXTENSION 83 % 1721729
2017-02-22 07:50:32 FLAPS EXTENSION 100 % 1721724
2017-02-22 07:50:32 FLAPS EXTENSION 83 % 1721719
2017-02-22 07:50:32 FLAPS EXTENSION 100 % 1711713
2017-02-22 07:50:32 FLAPS EXTENSION 83 % 1711711
2017-02-22 07:50:32 FLAPS EXTENSION 100 % 1711706
2017-02-22 07:50:33 FLAPS EXTENSION 83 % 1711701
2017-02-22 07:50:33 FLAPS EXTENSION 83 % 1711699
2017-02-22 07:50:33 FLAPS EXTENSION 100 % 1701690
2017-02-22 07:50:33 FLAPS EXTENSION 100 % 1701688
2017-02-22 07:52:04 CLIMBING1601455
2017-02-22 07:53:14 DESCEND1671260
2017-02-22 07:55:03 LANDING135366
2017-02-22 07:55:21 TAXI TO THE GATE19365
2017-02-22 07:56:39 TAXI SPEED ABOVE 25 KTS24365
 ACARS DATA
DATE IASGSALTITUDEFUEL CONSUMED OATFLIGHT STATUS
2017-02-21 22:23:5700353414BOARDING
2017-02-21 22:24:5700358214BOARDING
2017-02-21 22:25:57003512214BOARDING
2017-02-21 22:26:57003516314BOARDING
2017-02-21 22:27:57003519414BOARDING
2017-02-21 22:29:000035-2584414BOARDING
2017-02-21 22:29:570035-5540314BOARDING
2017-02-21 22:30:580035-5536214BOARDING
2017-02-21 22:31:580035-5532114BOARDING
2017-02-21 22:32:570035-5528114BOARDING
2017-02-21 22:33:570035-5524014BOARDING
2017-02-21 22:34:580035-5519914BOARDING
2017-02-21 22:35:570034-13072214BOARDING
2017-02-21 22:36:580034-13068114BOARDING
2017-02-21 22:37:580034-13064014BOARDING
2017-02-21 22:38:580234-13059914BOARDING
2017-02-21 22:39:58151534-13050314TAXI TO THE RWY
2017-02-21 22:40:58212134-13037214TAXI TO THE RWY
2017-02-21 22:41:58262634-13021614TAXI TO THE RWY
2017-02-21 22:42:58181834-13004014TAXI TO THE RWY
2017-02-21 22:43:58636634-12981714TAXI TO THE RWY
2017-02-21 22:44:582422451049-12887412CLIMBING
2017-02-21 22:45:582802924652-1280006CLIMBING
2017-02-21 22:46:582843148826-127240-2CLIMBING
2017-02-21 22:47:5833438111313-126572-7CLIMBING
2017-02-21 22:48:5835041614915-125956-14CLIMBING
2017-02-21 22:49:5835043818330-125416-21CLIMBING
2017-02-21 22:50:5835145721158-124925-26CLIMBING
2017-02-21 22:51:5835147323525-124480-31CLIMBING
2017-02-21 22:52:5835148725490-124067-35CLIMBING
2017-02-21 22:53:5835150027193-123683-38CLIMBING
2017-02-21 22:54:5834650628898-123317-42CLIMBING
2017-02-21 22:55:5833150130734-122977-45CLIMBING
2017-02-21 22:56:5831949832225-122665-48CLIMBING
2017-02-21 22:57:5831049533468-122373-51CLIMBING
2017-02-21 22:58:5831450534000-122092-52CRUISE
2017-02-21 22:59:5833052733997-121804-52CRUISE
2017-02-21 23:00:5834454834000-121509-49CRUISE
2017-02-21 23:01:5835856734003-121218-49CRUISE
2017-02-21 23:02:5837158434001-120925-48CRUISE
2017-02-21 23:03:5838259733993-120633-48CRUISE
2017-02-21 23:04:5838760534008-120342-48CRUISE
2017-02-21 23:05:5838961134020-120051-48CRUISE
2017-02-21 23:06:5838461634026-119759-48CRUISE
2017-02-21 23:07:5839062734028-119466-47CRUISE
2017-02-21 23:08:5838563434034-119176-49CRUISE
2017-02-21 23:09:5838062934059-118884-49CRUISE
2017-02-21 23:10:5837163934091-118585-47CRUISE
2017-02-21 23:11:5838065234155-118294-47CRUISE
2017-02-21 23:12:5839765634125-117994-51CRUISE
2017-02-21 23:13:5840065534143-117697-51CRUISE
2017-02-21 23:14:5840865134136-117404-52CRUISE
2017-02-21 23:15:5840864334139-117110-52CRUISE
2017-02-21 23:16:5840663734137-116816-52CRUISE
2017-02-21 23:17:5840262934141-116520-52CRUISE
2017-02-21 23:18:5840162734141-116224-52CRUISE
2017-02-21 23:19:5839962434140-115929-52CRUISE
2017-02-21 23:20:5839862234139-115631-52CRUISE
2017-02-21 23:21:5839762034137-115334-52CRUISE
2017-02-21 23:22:5839661734135-115034-52CRUISE
2017-02-21 23:23:5839561534132-114739-52CRUISE
2017-02-21 23:24:5839561434128-114446-52CRUISE
2017-02-21 23:25:5839461234124-114151-52CRUISE
2017-02-21 23:26:5839361034123-113854-52CRUISE
2017-02-21 23:27:5839260834118-113554-52CRUISE
2017-02-21 23:28:5839060634116-113259-53CRUISE
2017-02-21 23:29:5838960634113-112964-53CRUISE
2017-02-21 23:30:5838860434112-112670-53CRUISE
2017-02-21 23:31:5838660134109-112370-53CRUISE
2017-02-21 23:32:5838559934109-112077-53CRUISE
2017-02-21 23:33:5838359634107-111781-53CRUISE
2017-02-21 23:34:5838259334107-111487-53CRUISE
2017-02-21 23:35:5838159134106-111192-53CRUISE
2017-02-21 23:36:5837958934104-110897-53CRUISE
2017-02-21 23:37:5837758634106-110601-53CRUISE
2017-02-21 23:38:5837658434106-110305-53CRUISE
2017-02-21 23:39:5837658134103-110006-45CRUISE
2017-02-21 23:40:5837557934095-109715-44CRUISE
2017-02-21 23:41:5837457834094-109417-44CRUISE
2017-02-21 23:42:5837457834094-109120-44CRUISE
2017-02-21 23:43:5837457834095-108825-44CRUISE
2017-02-21 23:44:5837557934097-108528-43CRUISE
2017-02-21 23:45:5837658134098-108229-43CRUISE
2017-02-21 23:46:5837758334099-107934-43CRUISE
2017-02-21 23:47:5837758534104-107635-40CRUISE
2017-02-21 23:48:5837958834110-107339-40CRUISE
2017-02-21 23:49:5838159134112-107038-40CRUISE
2017-02-21 23:50:5838359434113-106748-40CRUISE
2017-02-21 23:51:5838559634113-106453-40CRUISE
2017-02-21 23:52:5938659934113-106155-40CRUISE
2017-02-21 23:53:5938860234113-105857-40CRUISE
2017-02-21 23:54:5938960434113-105565-40CRUISE
2017-02-21 23:55:5939160634113-105269-40CRUISE
2017-02-21 23:56:5940060634026-104972-54CRUISE
2017-02-21 23:57:5939860134009-104683-54CRUISE
2017-02-21 23:58:5939659833999-104394-54CRUISE
2017-02-21 23:59:5939559733996-104100-54CRUISE
2017-02-22 00:00:5939959434122-103804-53CRUISE
2017-02-22 00:01:5939859334139-103509-53CRUISE
2017-02-22 00:02:5939859434150-103211-53CRUISE
2017-02-22 00:03:5939959434158-102913-53CRUISE
2017-02-22 00:04:5939959534160-102617-53CRUISE
2017-02-22 00:05:5940059634162-102318-53CRUISE
2017-02-22 00:06:5940059734162-102019-53CRUISE
2017-02-22 00:07:5940059834169-101722-53CRUISE
2017-02-22 00:08:5940158734171-101426-53CRUISE
2017-02-22 00:09:5940158834172-101129-53CRUISE
2017-02-22 00:10:5940258934172-100830-53CRUISE
2017-02-22 00:11:5940259234171-100536-53CRUISE
2017-02-22 00:12:5940359634172-100237-53CRUISE
2017-02-22 00:13:5940359634172-99941-53CRUISE
2017-02-22 00:14:5940359734172-99643-53CRUISE
2017-02-22 00:15:5940359734172-99345-53CRUISE
2017-02-22 00:16:5940359734172-99047-53CRUISE
2017-02-22 00:17:5940359434169-98749-53CRUISE
2017-02-22 00:18:5940358934172-98452-53CRUISE
2017-02-22 00:19:5940359034172-98158-53CRUISE
2017-02-22 00:20:5940358934172-97859-53CRUISE
2017-02-22 00:21:5940358934172-97564-53CRUISE
2017-02-22 00:22:5940358934172-97266-53CRUISE
2017-02-22 00:23:5940358934172-96967-53CRUISE
2017-02-22 00:24:5940458934172-96672-53CRUISE
2017-02-22 00:25:5940458934172-96372-53CRUISE
2017-02-22 00:26:5940359534172-96072-53CRUISE
2017-02-22 00:27:5940359634172-95771-53CRUISE
2017-02-22 00:28:5940559634172-95481-53CRUISE
2017-02-22 00:29:5940459634178-95182-53CRUISE
2017-02-22 00:30:5940459634178-94885-53CRUISE
2017-02-22 00:31:5940459634176-94585-53CRUISE
2017-02-22 00:32:5940359634174-94290-53CRUISE
2017-02-22 00:33:5940358834170-93994-53CRUISE
2017-02-22 00:34:5940358634172-93697-53CRUISE
2017-02-22 00:35:5940458634173-93398-53CRUISE
2017-02-22 00:36:5940458634180-93101-53CRUISE
2017-02-22 00:37:5940558634279-92801-53CRUISE
2017-02-22 00:38:5940658734290-92499-53CRUISE
2017-02-22 00:39:5940658834300-92201-53CRUISE
2017-02-22 00:40:5940658834307-91897-53CRUISE
2017-02-22 00:41:5940658934309-91599-53CRUISE
2017-02-22 00:42:5940759034311-91303-53CRUISE
2017-02-22 00:43:5940758934313-90993-53CRUISE
2017-02-22 00:44:5940759034315-90692-53CRUISE
2017-02-22 00:45:5940759034316-90390-53CRUISE
2017-02-22 00:46:5940759134317-90085-53CRUISE
2017-02-22 00:47:5940759234317-89784-53CRUISE
2017-02-22 00:48:5940759234317-89482-53CRUISE
2017-02-22 00:49:5940759234310-89179-53CRUISE
2017-02-22 00:50:5940759234303-88878-54CRUISE
2017-02-22 00:51:5940759234296-88578-54CRUISE
2017-02-22 00:52:5940759234289-88275-54CRUISE
2017-02-22 00:53:5940759234282-87975-54CRUISE
2017-02-22 00:54:5940759234274-87673-54CRUISE
2017-02-22 00:55:5940659234263-87372-55CRUISE
2017-02-22 00:56:5940659234253-87070-55CRUISE
2017-02-22 00:57:5940659234234-86769-56CRUISE
2017-02-22 00:58:5940559234210-86476-56CRUISE
2017-02-22 00:59:5940559234184-86172-56CRUISE
2017-02-22 01:00:5940459234156-85877-57CRUISE
2017-02-22 01:01:5940359234128-85576-57CRUISE
2017-02-22 01:02:5940259234099-85285-57CRUISE
2017-02-22 01:03:5940259234071-84991-57CRUISE
2017-02-22 01:04:5940157834048-84697-57CRUISE
2017-02-22 01:05:5940157834035-84404-57CRUISE
2017-02-22 01:07:0040257734028-84109-57CRUISE
2017-02-22 01:08:0040257734037-83816-57CRUISE
2017-02-22 01:09:0040357734047-83525-57CRUISE
2017-02-22 01:10:0040357634057-83233-57CRUISE
2017-02-22 01:11:0040357534074-82939-57CRUISE
2017-02-22 01:12:0040357634087-82645-57CRUISE
2017-02-22 01:13:0040357534097-82350-57CRUISE
2017-02-22 01:14:0040457634108-82054-57CRUISE
2017-02-22 01:15:0040457634118-81760-57CRUISE
2017-02-22 01:16:0040457634129-81460-57CRUISE
2017-02-22 01:17:0040457634139-81164-57CRUISE
2017-02-22 01:18:0040557634150-80866-57CRUISE
2017-02-22 01:19:0040757434123-80569-59CRUISE
2017-02-22 01:20:0040657234113-80275-60CRUISE
2017-02-22 01:21:0040657034102-79987-60CRUISE
2017-02-22 01:22:0040656834096-79686-60CRUISE
2017-02-22 01:23:0040556634094-79394-61CRUISE
2017-02-22 01:24:0040556534092-79101-61CRUISE
2017-02-22 01:25:0040556334089-78805-61CRUISE
2017-02-22 01:26:0040456234088-78510-61CRUISE
2017-02-22 01:27:0040256234038-78214-62CRUISE
2017-02-22 01:28:0040256234015-77925-62CRUISE
2017-02-22 01:29:0040256134005-77632-62CRUISE
2017-02-22 01:30:0040256033997-77342-62CRUISE
2017-02-22 01:31:0040156933996-77047-62CRUISE
2017-02-22 01:32:0040156933995-76753-62CRUISE
2017-02-22 01:33:0040156933996-76464-62CRUISE
2017-02-22 01:34:0040157033996-76171-62CRUISE
2017-02-22 01:35:0040157033997-75879-62CRUISE
2017-02-22 01:36:0040157133999-75589-61CRUISE
2017-02-22 01:37:0040257033999-75295-62CRUISE
2017-02-22 01:38:0040357033999-75002-62CRUISE
2017-02-22 01:39:0040356933999-74717-62CRUISE
2017-02-22 01:40:0040556733997-74420-63CRUISE
2017-02-22 01:41:0040456533996-74130-63CRUISE
2017-02-22 01:42:0040456233995-73839-63CRUISE
2017-02-22 01:43:0040456133995-73546-63CRUISE
2017-02-22 01:44:0040455934010-73254-63CRUISE
2017-02-22 01:45:0040455834027-72959-63CRUISE
2017-02-22 01:46:0040355234033-72668-63CRUISE
2017-02-22 01:47:0040255234040-72375-63CRUISE
2017-02-22 01:48:0040255234039-72082-63CRUISE
2017-02-22 01:49:0040255234033-71786-63CRUISE
2017-02-22 01:50:0040255334026-71492-64CRUISE
2017-02-22 01:51:0040255334019-71203-64CRUISE
2017-02-22 01:52:0040255334013-70912-64CRUISE
2017-02-22 01:53:0040255334007-70614-64CRUISE
2017-02-22 01:54:0040255334002-70323-64CRUISE
2017-02-22 01:55:0040255334000-70032-64CRUISE
2017-02-22 01:56:0040255333998-69740-64CRUISE
2017-02-22 01:57:0040255333997-69446-64CRUISE
2017-02-22 01:58:0040255333996-69155-64CRUISE
2017-02-22 01:59:0040255333995-68860-64CRUISE
2017-02-22 02:00:0040255333993-68569-64CRUISE
2017-02-22 02:01:0040255333989-68278-64CRUISE
2017-02-22 02:02:0040255333984-67985-63CRUISE
2017-02-22 02:03:0040155133977-67697-63CRUISE
2017-02-22 02:04:0040155133970-67405-63CRUISE
2017-02-22 02:05:0040155133964-67112-63CRUISE
2017-02-22 02:06:0040155133958-66822-63CRUISE
2017-02-22 02:07:0040155133954-66532-63CRUISE
2017-02-22 02:08:0040155033951-66241-63CRUISE
2017-02-22 02:09:0040255033965-65952-64CRUISE
2017-02-22 02:10:0040255033979-65658-64CRUISE
2017-02-22 02:11:0040255033990-65367-64CRUISE
2017-02-22 02:12:0040255033992-65071-64CRUISE
2017-02-22 02:13:0040255033993-64780-64CRUISE
2017-02-22 02:14:0040255033994-64483-64CRUISE
2017-02-22 02:15:0040255133994-64191-64CRUISE
2017-02-22 02:16:0040255133994-63897-64CRUISE
2017-02-22 02:17:0040255133994-63606-64CRUISE
2017-02-22 02:18:0040255133994-63315-64CRUISE
2017-02-22 02:19:0140155134042-63022-63CRUISE
2017-02-22 02:20:0040255334066-62730-63CRUISE
2017-02-22 02:21:0140355434076-62439-63CRUISE
2017-02-22 02:22:0140355534081-62142-63CRUISE
2017-02-22 02:23:0140455534082-61849-63CRUISE
2017-02-22 02:24:0140455534082-61552-63CRUISE
2017-02-22 02:25:0140455534082-61258-63CRUISE
2017-02-22 02:26:0140455634083-60973-63CRUISE
2017-02-22 02:27:0140455634083-60675-63CRUISE
2017-02-22 02:28:0140555634094-60386-63CRUISE
2017-02-22 02:29:0140555534043-60091-63CRUISE
2017-02-22 02:30:0140455434032-59795-63CRUISE
2017-02-22 02:31:0140455434029-59502-63CRUISE
2017-02-22 02:32:0140455334030-59206-63CRUISE
2017-02-22 02:33:0140355334032-58916-63CRUISE
2017-02-22 02:34:0140355334035-58623-63CRUISE
2017-02-22 02:35:0140355334037-58330-63CRUISE
2017-02-22 02:36:0140455334039-58037-63CRUISE
2017-02-22 02:37:0140055533691-57757-62CRUISE
2017-02-22 02:38:0139555333671-57474-62CRUISE
2017-02-22 02:39:0139555233601-57199-62CRUISE
2017-02-22 02:40:0139555133591-56915-62CRUISE
2017-02-22 02:41:0139455033583-56637-62CRUISE
2017-02-22 02:42:0139454933582-56354-62CRUISE
2017-02-22 02:43:0139454933581-56073-62CRUISE
2017-02-22 02:44:0139454933581-55798-62CRUISE
2017-02-22 02:45:0139454933581-55518-62CRUISE
2017-02-22 02:46:0139454933581-55237-62CRUISE
2017-02-22 02:47:0139454933581-54954-62CRUISE
2017-02-22 02:48:0139454933581-54679-62CRUISE
2017-02-22 02:49:0139454933581-54395-62CRUISE
2017-02-22 02:50:0139454933581-54114-62CRUISE
2017-02-22 02:51:0139454933581-53832-62CRUISE
2017-02-22 02:52:0139454933581-53549-62CRUISE
2017-02-22 02:53:0139454933581-53265-62CRUISE
2017-02-22 02:54:0139454933581-52986-62CRUISE
2017-02-22 02:55:0139454933581-52712-62CRUISE
2017-02-22 02:56:0139454933581-52429-62CRUISE
2017-02-22 02:57:0139454933581-52144-62CRUISE
2017-02-22 02:58:0139454933581-51863-62CRUISE
2017-02-22 02:59:0139454933581-51579-62CRUISE
2017-02-22 03:00:0139454933581-51301-62CRUISE
2017-02-22 03:01:0139454933581-51017-62CRUISE
2017-02-22 03:02:0139454933581-50734-62CRUISE
2017-02-22 03:03:0139454933581-50452-62CRUISE
2017-02-22 03:04:0139454933581-50169-62CRUISE
2017-02-22 03:05:0139454933579-49888-62CRUISE
2017-02-22 03:06:0139454933579-49609-62CRUISE
2017-02-22 03:07:0139454933572-49333-62CRUISE
2017-02-22 03:08:0139354933562-49055-62CRUISE
2017-02-22 03:09:0139354933554-48775-62CRUISE
2017-02-22 03:10:0139354933552-48494-62CRUISE
2017-02-22 03:11:0139354833552-48217-62CRUISE
2017-02-22 03:12:0139354833551-47936-62CRUISE
2017-02-22 03:13:0139354833550-47655-62CRUISE
2017-02-22 03:14:0139354833548-47379-62CRUISE
2017-02-22 03:15:0139454733545-47093-62CRUISE
2017-02-22 03:16:0139454733541-46815-62CRUISE
2017-02-22 03:17:0139454633537-46534-63CRUISE
2017-02-22 03:18:0139454533535-46252-63CRUISE
2017-02-22 03:19:0139454433532-45976-63CRUISE
2017-02-22 03:20:0139454433530-45697-63CRUISE
2017-02-22 03:21:0139454333528-45416-63CRUISE
2017-02-22 03:22:0139454333527-45136-63CRUISE
2017-02-22 03:23:0139354333526-44860-63CRUISE
2017-02-22 03:24:0139354233525-44579-63CRUISE
2017-02-22 03:25:0139354233525-44302-63CRUISE
2017-02-22 03:26:0139354233526-44024-63CRUISE
2017-02-22 03:27:0139354333527-43748-63CRUISE
2017-02-22 03:28:0139354333528-43473-63CRUISE
2017-02-22 03:29:0139354333529-43190-63CRUISE
2017-02-22 03:30:0139354333529-42915-63CRUISE
2017-02-22 03:31:0139354333530-42635-63CRUISE
2017-02-22 03:32:0239454333527-42355-63CRUISE
2017-02-22 03:33:0239454333524-42081-63CRUISE
2017-02-22 03:34:0239454333523-41801-63CRUISE
2017-02-22 03:35:0239354333522-41526-63CRUISE
2017-02-22 03:36:0239354333522-41244-63CRUISE
2017-02-22 03:37:0239354533522-40967-63CRUISE
2017-02-22 03:38:0239354633522-40689-63CRUISE
2017-02-22 03:39:0239354633522-40410-63CRUISE
2017-02-22 03:40:0239354633522-40135-63CRUISE
2017-02-22 03:41:0239354633522-39855-63CRUISE
2017-02-22 03:42:0239454633522-39578-63CRUISE
2017-02-22 03:43:0239454733522-39297-63CRUISE
2017-02-22 03:44:0239454633522-39018-63CRUISE
2017-02-22 03:45:0239454733522-38736-63CRUISE
2017-02-22 03:46:0239454733522-38453-63CRUISE
2017-02-22 03:47:0239454733522-38175-63CRUISE
2017-02-22 03:48:0239454733522-37900-63CRUISE
2017-02-22 03:49:0239454833522-37619-63CRUISE
2017-02-22 03:50:0239454833522-37339-63CRUISE
2017-02-22 03:51:0239454833522-37061-63CRUISE
2017-02-22 03:52:0239155033397-36783-62CRUISE
2017-02-22 03:53:0239055033384-36510-62CRUISE
2017-02-22 03:54:0239055033373-36240-62CRUISE
2017-02-22 03:55:0239055033363-35967-62CRUISE
2017-02-22 03:56:0238655333244-35696-61CRUISE
2017-02-22 03:57:0238755433234-35426-61CRUISE
2017-02-22 03:58:0238755433230-35156-61CRUISE
2017-02-22 03:59:0238755433231-34888-61CRUISE
2017-02-22 04:00:0238755433233-34615-61CRUISE
2017-02-22 04:01:0238755433237-34350-61CRUISE
2017-02-22 04:02:0238855433239-34079-61CRUISE
2017-02-22 04:03:0238855433242-33809-61CRUISE
2017-02-22 04:04:0238655533209-33538-61CRUISE
2017-02-22 04:05:0238655533184-33277-61CRUISE
2017-02-22 04:06:0238655433174-33010-61CRUISE
2017-02-22 04:07:0238655433169-32741-61CRUISE
2017-02-22 04:08:0238655433168-32472-61CRUISE
2017-02-22 04:09:0238655433168-32206-61CRUISE
2017-02-22 04:10:0238655433168-31935-61CRUISE
2017-02-22 04:11:0238655433168-31666-61CRUISE
2017-02-22 04:12:0238655433168-31398-61CRUISE
2017-02-22 04:13:0238655433168-31128-61CRUISE
2017-02-22 04:14:0238655433168-30858-61CRUISE
2017-02-22 04:15:0238555433168-30589-61CRUISE
2017-02-22 04:16:0238555533168-30320-61CRUISE
2017-02-22 04:17:0238555633167-30050-61CRUISE
2017-02-22 04:18:0238555633167-29780-61CRUISE
2017-02-22 04:19:0238555633167-29516-61CRUISE
2017-02-22 04:20:0238555633167-29249-61CRUISE
2017-02-22 04:21:0238555633167-28981-61CRUISE
2017-02-22 04:22:0238555533167-28714-61CRUISE
2017-02-22 04:23:0238455533167-28450-61CRUISE
2017-02-22 04:24:0238455533167-28185-61CRUISE
2017-02-22 04:25:0238355433167-27913-60CRUISE
2017-02-22 04:26:0238355533167-27645-60CRUISE
2017-02-22 04:27:0238355533167-27373-60CRUISE
2017-02-22 04:28:0238355633167-27106-60CRUISE
2017-02-22 04:29:0238355733168-26835-60CRUISE
2017-02-22 04:30:0238355933168-26567-60CRUISE
2017-02-22 04:31:0238456033168-26298-60CRUISE
2017-02-22 04:32:0238456133168-26024-59CRUISE
2017-02-22 04:33:0238556433168-25759-59CRUISE
2017-02-22 04:34:0238656633168-25489-59CRUISE
2017-02-22 04:35:0238656633168-25224-60CRUISE
2017-02-22 04:36:0238756733168-24953-60CRUISE
2017-02-22 04:37:0238756733167-24688-60CRUISE
2017-02-22 04:38:0238756733167-24418-60CRUISE
2017-02-22 04:39:0238556733167-24155-59CRUISE
2017-02-22 04:40:0238556933167-23885-59CRUISE
2017-02-22 04:41:0238557133167-23619-59CRUISE
2017-02-22 04:42:0238657233167-23352-59CRUISE
2017-02-22 04:43:0238657333167-23082-59CRUISE
2017-02-22 04:44:0238657433167-22815-59CRUISE
2017-02-22 04:45:0238757433167-22550-59CRUISE
2017-02-22 04:46:0338757433167-22281-59CRUISE
2017-02-22 04:47:0338457633167-22010-59CRUISE
2017-02-22 04:48:0338557833167-21747-59CRUISE
2017-02-22 04:49:0338658033167-21474-59CRUISE
2017-02-22 04:50:0338658033168-21210-59CRUISE
2017-02-22 04:51:0338658133168-20937-59CRUISE
2017-02-22 04:52:0338658233168-20669-59CRUISE
2017-02-22 04:53:0338658233167-20400-59CRUISE
2017-02-22 04:54:0338658433168-20135-59CRUISE
2017-02-22 04:55:0338658433168-19867-59CRUISE
2017-02-22 04:56:0338758633168-19596-59CRUISE
2017-02-22 04:57:0338659333167-19324-58CRUISE
2017-02-22 04:58:0338760333168-19060-59CRUISE
2017-02-22 04:59:0338760333168-18794-59CRUISE
2017-02-22 05:00:0338860333169-18526-58CRUISE
2017-02-22 05:01:0338860333172-18262-58CRUISE
2017-02-22 05:02:0338860333178-17989-58CRUISE
2017-02-22 05:03:0338860333183-17723-58CRUISE
2017-02-22 05:04:0338960333193-17448-58CRUISE
2017-02-22 05:05:0339060233208-17180-58CRUISE
2017-02-22 05:06:0339060233222-16909-58CRUISE
2017-02-22 05:07:0339060233235-16637-58CRUISE
2017-02-22 05:08:0339160133248-16368-58CRUISE
2017-02-22 05:09:0339360133264-16093-58CRUISE
2017-02-22 05:10:0339259933297-15821-58CRUISE
2017-02-22 05:11:0339159933307-15549-58CRUISE
2017-02-22 05:12:0339058333311-15278-58CRUISE
2017-02-22 05:13:0339058033315-15003-58CRUISE
2017-02-22 05:14:0339158033315-14731-58CRUISE
2017-02-22 05:15:0339158133315-14459-58CRUISE
2017-02-22 05:16:0339158133315-14188-58CRUISE
2017-02-22 05:17:0339158133315-13914-58CRUISE
2017-02-22 05:18:0339158233315-13642-58CRUISE
2017-02-22 05:19:0339158233315-13371-58CRUISE
2017-02-22 05:20:0339158233315-13096-58CRUISE
2017-02-22 05:21:0339158233315-12823-58CRUISE
2017-02-22 05:22:0339158333315-12554-58CRUISE
2017-02-22 05:23:0339258333315-12283-58CRUISE
2017-02-22 05:24:0339258333315-12011-58CRUISE
2017-02-22 05:25:0339258333315-11739-58CRUISE
2017-02-22 05:26:0338858633306-11467-58CRUISE
2017-02-22 05:27:0338858833296-11198-58CRUISE
2017-02-22 05:28:0338959033291-10924-57CRUISE
2017-02-22 05:29:0338959333292-10657-57CRUISE
2017-02-22 05:30:0338859533283-10382-57CRUISE
2017-02-22 05:31:0338859733274-10115-57CRUISE
2017-02-22 05:32:0338860033264-9842-56CRUISE
2017-02-22 05:33:0338860333254-9573-56CRUISE
2017-02-22 05:34:0338660533247-9297-56CRUISE
2017-02-22 05:35:0338860833237-9026-56CRUISE
2017-02-22 05:36:0338960933236-8758-56CRUISE
2017-02-22 05:37:0338961133237-8485-56CRUISE
2017-02-22 05:38:0338961133233-8214-56CRUISE
2017-02-22 05:39:0338961233229-7947-56CRUISE
2017-02-22 05:40:0338961733228-7676-56CRUISE
2017-02-22 05:41:0339061733228-7406-56CRUISE
2017-02-22 05:42:0339061833237-7140-56CRUISE
2017-02-22 05:43:0339061833259-6866-56CRUISE
2017-02-22 05:44:0339161933297-6600-55CRUISE
2017-02-22 05:45:0339162033338-6324-55CRUISE
2017-02-22 05:46:0339262133373-6048-55CRUISE
2017-02-22 05:47:0339362333403-5769-55CRUISE
2017-02-22 05:48:0338762833428-5494-55CRUISE
2017-02-22 05:49:0338963533456-5215-55CRUISE
2017-02-22 05:50:0339164033489-4938-55CRUISE
2017-02-22 05:51:0339764233465-4662-55CRUISE
2017-02-22 05:52:0339863933384-4385-55CRUISE
2017-02-22 05:53:0339663633374-4112-55CRUISE
2017-02-22 05:54:0339463533384-3837-55CRUISE
2017-02-22 05:55:0338263533391-3566-55CRUISE
2017-02-22 05:56:0338964333466-3286-55CRUISE
2017-02-22 05:57:0339364933529-3007-55CRUISE
2017-02-22 05:58:0439665333598-2724-55CRUISE
2017-02-22 05:59:0339665633703-2442-56CRUISE
2017-02-22 06:00:0439966133774-2154-56CRUISE
2017-02-22 06:01:0440266334021-1860-57CLIMBING
2017-02-22 06:02:0440466834021-1563-56CRUISE
2017-02-22 06:03:0440567233978-1274-56CRUISE
2017-02-22 06:04:0440467433929-986-56CRUISE
2017-02-22 06:05:0440367633878-694-56CRUISE
2017-02-22 06:06:0440267633807-408-56CRUISE
2017-02-22 06:07:0440267833764-124-56CRUISE
2017-02-22 06:08:0440267833754157-56CRUISE
2017-02-22 06:09:0440367833758442-56CRUISE
2017-02-22 06:10:0440467833768729-57CRUISE
2017-02-22 06:11:04404678337791021-57CRUISE
2017-02-22 06:12:04404677337891308-57CRUISE
2017-02-22 06:13:04403679337991594-57CRUISE
2017-02-22 06:14:04403680338091883-57CRUISE
2017-02-22 06:15:04404680338182166-57CRUISE
2017-02-22 06:16:04408678338752460-58CRUISE
2017-02-22 06:17:04407676339002750-58CRUISE
2017-02-22 06:18:04406677339103038-58CRUISE
2017-02-22 06:19:04406677339103330-58CRUISE
2017-02-22 06:20:04407677339173615-58CRUISE
2017-02-22 06:21:04408676339273908-59CRUISE
2017-02-22 06:22:04407675339384195-59CRUISE
2017-02-22 06:23:04408674339464492-59CRUISE
2017-02-22 06:24:04412671339394783-59CRUISE
2017-02-22 06:25:04410667339295075-59CRUISE
2017-02-22 06:26:04408664339195360-59CRUISE
2017-02-22 06:27:04407662339095653-59CRUISE
2017-02-22 06:28:04407661339085943-59CRUISE
2017-02-22 06:29:04409660339216234-59CRUISE
2017-02-22 06:30:04410657339496523-59CRUISE
2017-02-22 06:31:04409655339626811-59CRUISE
2017-02-22 06:32:04300501339696865-59CRUISE
2017-02-22 06:33:04212376339656865-59CRUISE
2017-02-22 06:34:04219363311576865-54DESCEND
2017-02-22 06:35:04312440244026865-37DESCEND
2017-02-22 06:36:04318422198406865-26DESCEND
2017-02-22 06:37:04318396159866865-18DESCEND
2017-02-22 06:38:04318374123406865-11DESCEND
2017-02-22 06:39:0432035886986865-5DESCEND
2017-02-22 06:40:0429031461366865-2DESCEND
2017-02-22 06:41:0417619660186865-2CRUISE
2017-02-22 06:42:04147163456768650DESCEND
2017-02-22 06:43:04167173234168653DESCEND
2017-02-22 06:44:04154154102268650DESCEND
2017-02-22 06:45:04140141102468650DESCEND
2017-02-22 06:46:04134137102568651DESCEND
2017-02-22 06:47:04135137102568651DESCEND
2017-02-22 06:48:04135135102668652DESCEND
2017-02-22 06:49:04135134102568652DESCEND
2017-02-22 06:50:04139129102268655DESCEND
2017-02-22 06:51:04137127102168655DESCEND
2017-02-22 06:52:04137126102568655DESCEND
2017-02-22 06:53:04136126102168655DESCEND
2017-02-22 06:54:04136125102168655DESCEND
2017-02-22 06:55:04136125101968655DESCEND
2017-02-22 06:56:04136126102268655DESCEND
2017-02-22 06:57:04137126102368655DESCEND
2017-02-22 06:58:04137126102468655DESCEND
2017-02-22 06:59:04137126102068655DESCEND
2017-02-22 07:00:04136125102768655DESCEND
2017-02-22 07:01:04137126102768655DESCEND
2017-02-22 07:02:04136126102268655DESCEND
2017-02-22 07:03:04139126102168655DESCEND
2017-02-22 07:04:04136126102768655DESCEND
2017-02-22 07:05:04135126101968655DESCEND
2017-02-22 07:06:04135126102168655DESCEND
2017-02-22 07:07:04137127102668655DESCEND
2017-02-22 07:08:04136127102468655DESCEND
2017-02-22 07:09:04137128102268655DESCEND
2017-02-22 07:10:04136127102768655DESCEND
2017-02-22 07:11:04136127102468655DESCEND
2017-02-22 07:12:04135127101968655DESCEND
2017-02-22 07:13:04135129102368655DESCEND
2017-02-22 07:14:05136129102168655DESCEND
2017-02-22 07:15:05136128102768655DESCEND
2017-02-22 07:16:05136128102568655DESCEND
2017-02-22 07:17:05136128102168655DESCEND
2017-02-22 07:18:05135128102768655DESCEND
2017-02-22 07:19:0515214540368656DESCEND
2017-02-22 07:20:05282042968656CRUISE
2017-02-22 07:21:0510042868656CRUISE
2017-02-22 07:22:057042868656CRUISE
2017-02-22 07:23:059042868656CRUISE
2017-02-22 07:24:056042868656CRUISE
2017-02-22 07:25:057042868656CRUISE
2017-02-22 07:26:057042868656CRUISE
2017-02-22 07:27:056042868656CRUISE
2017-02-22 07:28:0500302056865-50CLIMBING
2017-02-22 07:29:0500308106865-50CRUISE
2017-02-22 07:30:050030810-46558-49CRUISE
2017-02-22 07:31:050030810-46558-49CRUISE
2017-02-22 07:32:050030810-46715-49CRUISE
2017-02-22 07:33:050030810-46715-49CRUISE
2017-02-22 07:34:0539954934213-46669-49CRUISE
2017-02-22 07:35:0523645540383-46503-49DESCEND
2017-02-22 07:36:0530848232249-46420-49DESCEND
2017-02-22 07:37:0525040432571-46240-49CLIMBING
2017-02-22 07:38:0527142130658-46004-49DESCEND
2017-02-22 07:39:0529444028679-45882-45DESCEND
2017-02-22 07:40:0529644826444-45821-40DESCEND
2017-02-22 07:41:0531745023447-45760-32DESCEND
2017-02-22 07:42:0533444920457-45699-25DESCEND
2017-02-22 07:43:0535044017449-45638-18DESCEND
2017-02-22 07:44:0536842914456-45577-14DESCEND
2017-02-22 07:45:0532736312336-45516-10DESCEND
2017-02-22 07:46:0529230010326-45455-6DESCEND
2017-02-22 07:47:052342418239-45393-2DESCEND
2017-02-22 07:48:052112296278-453320DESCEND
2017-02-22 07:49:052072234283-452724DESCEND
2017-02-22 07:50:051791852807-452109DESCEND
2017-02-22 07:51:051621651515-4497612DESCEND
2017-02-22 07:52:051591621460-4454812CLIMBING
2017-02-22 07:53:051691711393-4411512CLIMBING
2017-02-22 07:54:05153155721-4381413DESCEND
2017-02-22 07:55:05134134365-4348314LANDED
2017-02-22 07:56:051817365-4336614TAXI TO THE GATE
2017-02-22 07:57:0500365-4325214TAXI TO THE GATE